Terminal Aerodrome Forecast
Issued by NWS St Louis, MO

Home | Current Version | Previous Version | Text Only | Print | Product List | Glossary On
Versions: 1 2 3 4 5 6 7 8 9 10 11 12 13 14 15 16 17 18 19 20 21 22 23 24 25 26 27 28
000
FTUS43 KLSX 161400 AAA
TAFSTL
TAF AMD
KSTL 161450Z 1615/1718 29017G27KT P6SM OVC012
     FM162200 30014G24KT P6SM OVC025
     FM170000 30010KT P6SM OVC025
     FM170600 30008KT P6SM BKN250=

USA.gov is the U.S. government's official web portal to all federal, state and local government web resources and services.